Time;durP1;ratioP1;P1;durP2;ratioP2;P2;SDS_P1;SDS_P2;PMS_P1;PMS_P2;Temp;Humidity;BMP_temperature;BMP_pressure;BME280_temperature;BME280_humidity;BME280_pressure;Samples;Min_cycle;Max_cycle;Signal;HPM_P1;HPM_P2
2022/01/27 00:01:07;;;;;;;47.58;14.75;;;;;;;1.69;76.14;101364.63;4999498;28;20060;-83
2022/01/27 00:03:46;;;;;;;46.95;15.80;;;;;;;1.70;76.10;101371.59;4999508;28;20518;-83
2022/01/27 00:06:15;;;;;;;56.45;17.58;;;;;;;1.69;76.21;101372.50;5001156;28;20049;-83
2022/01/27 00:08:54;;;;;;;55.80;17.48;;;;;;;1.67;76.18;101382.16;4977919;28;20053;-83
2022/01/27 00:11:21;;;;;;;46.85;16.40;;;;;;;1.69;76.03;101382.97;4989956;28;20092;-83
2022/01/27 00:13:54;;;;;;;59.67;19.88;;;;;;;1.67;76.18;101388.25;4998905;28;20048;-83
2022/01/27 00:16:30;;;;;;;45.78;13.88;;;;;;;1.69;76.24;101396.06;4984133;28;20049;-83
2022/01/27 00:18:57;;;;;;;48.42;15.65;;;;;;;1.68;76.20;101397.84;5012805;28;20042;-83
2022/01/27 00:21:27;;;;;;;56.35;17.15;;;;;;;1.69;76.26;101396.06;5002968;28;20104;-83
2022/01/27 00:24:00;;;;;;;52.55;17.27;;;;;;;1.65;75.99;101394.41;5005079;28;20049;-83
2022/01/27 00:26:27;;;;;;;65.25;18.77;;;;;;;1.67;76.34;101395.25;5004747;28;20056;-83
2022/01/27 00:28:53;;;;;;;54.13;15.75;;;;;;;1.67;76.26;101390.00;5005867;28;20125;-83
2022/01/27 00:31:22;;;;;;;51.25;15.70;;;;;;;1.66;76.02;101383.06;5012215;28;20133;-83
2022/01/27 00:34:18;;;;;;;53.00;16.88;;;;;;;1.58;75.71;101380.66;5000725;28;20050;-83
2022/01/27 00:36:45;;;;;;;54.85;16.10;;;;;;;1.65;76.02;101376.09;4966667;28;20408;-83
2022/01/27 00:39:12;;;;;;;54.03;17.65;;;;;;;1.64;76.26;101379.63;5015946;28;20076;-83
2022/01/27 00:41:39;;;;;;;54.13;17.15;;;;;;;1.65;76.22;101378.69;5016962;28;20596;-83
2022/01/27 00:44:06;;;;;;;52.40;16.95;;;;;;;1.66;76.25;101377.81;5000386;28;20038;-83
2022/01/27 00:46:36;;;;;;;56.60;17.50;;;;;;;1.66;76.09;101372.59;5005096;28;20107;-83
2022/01/27 00:49:02;;;;;;;46.90;15.73;;;;;;;1.65;75.96;101370.84;5007227;28;20488;-83
2022/01/27 00:51:35;;;;;;;54.83;16.92;;;;;;;1.64;75.77;101366.53;5000959;28;20049;-83
2022/01/27 00:56:41;;;;;;;53.63;16.42;;;;;;;1.65;76.05;101355.13;5002410;28;20077;-82
2022/01/27 00:59:26;;;;;;;45.58;15.88;;;;;;;1.63;75.99;101362.16;5028175;28;20048;-83
2022/01/27 01:02:04;;;;;;;59.40;17.52;;;;;;;1.62;75.86;101361.31;4985979;28;20062;-83
2022/01/27 01:04:35;;;;;;;40.17;12.30;;;;;;;1.64;75.49;101371.75;5031845;28;20045;-83
2022/01/27 01:07:03;;;;;;;42.85;14.10;;;;;;;1.61;75.72;101367.47;4995286;28;20046;-83
2022/01/27 01:14:57;;;;;;;46.25;15.93;;;;;;;1.61;75.61;101358.75;5003240;28;20373;-83
2022/01/27 01:17:38;;;;;;;43.92;14.63;;;;;;;1.62;75.67;101361.31;5003014;28;20506;-83
2022/01/27 01:20:26;;;;;;;51.55;17.73;;;;;;;1.61;75.66;101351.75;5038561;28;20125;-82
2022/01/27 01:31:16;;;;;;;43.67;14.90;;;;;;;1.58;75.60;101330.91;5017486;28;22918;-83
2022/01/27 01:33:45;;;;;;;39.75;14.63;;;;;;;1.59;75.81;101335.22;5020076;28;20045;-83
2022/01/27 01:36:15;;;;;;;43.45;14.68;;;;;;;1.60;75.59;101329.06;5000134;28;20037;-83
2022/01/27 01:38:44;;;;;;;46.35;13.68;;;;;;;1.59;75.47;101329.13;5009751;28;20061;-83
2022/01/27 01:41:11;;;;;;;44.10;14.30;;;;;;;1.58;75.74;101322.16;5015523;28;20049;-83
2022/01/27 01:43:38;;;;;;;44.67;16.13;;;;;;;1.59;75.64;101324.75;4988518;28;20041;-82
2022/01/27 01:46:05;;;;;;;47.35;14.95;;;;;;;1.60;75.57;101330.84;4999236;28;20045;-83
2022/01/27 01:48:31;;;;;;;43.33;14.82;;;;;;;1.60;75.57;101331.69;4986019;28;20053;-83
2022/01/27 01:50:58;;;;;;;42.55;14.52;;;;;;;1.58;75.20;101330.03;5013198;28;20057;-83
2022/01/27 01:53:26;;;;;;;42.00;14.20;;;;;;;1.57;75.23;101326.53;4997913;28;20049;-83
2022/01/27 01:55:53;;;;;;;40.42;14.52;;;;;;;1.58;75.48;101340.50;4984552;28;20053;-83
2022/01/27 01:58:20;;;;;;;40.10;13.65;;;;;;;1.59;75.24;101331.75;5002192;28;20090;-83
2022/01/27 02:00:46;;;;;;;46.90;14.00;;;;;;;1.58;75.29;101328.28;5005011;28;21143;-83
2022/01/27 02:03:13;;;;;;;39.55;14.63;;;;;;;1.59;75.52;101323.91;4970096;28;20132;-83
2022/01/27 02:05:47;;;;;;;42.70;14.40;;;;;;;1.58;75.33;101325.66;4997179;28;20049;-83
2022/01/27 02:19:22;;;;;;;47.30;15.32;;;;;;;1.52;75.37;101331.91;4955507;28;20464;-83
2022/01/27 02:21:53;;;;;;;47.33;14.27;;;;;;;1.51;75.23;101332.81;5019370;28;20065;-83
2022/01/27 02:24:22;;;;;;;48.75;14.50;;;;;;;1.52;75.29;101339.75;5001050;28;20053;-83
2022/01/27 02:26:50;;;;;;;57.20;15.35;;;;;;;1.54;75.26;101338.88;5000777;28;20054;-83
2022/01/27 02:29:18;;;;;;;49.15;14.43;;;;;;;1.54;75.44;101338.88;4988172;28;20504;-83
2022/01/27 02:32:13;;;;;;;58.88;17.85;;;;;;;1.46;75.11;101339.09;5002286;28;20048;-83
2022/01/27 02:34:40;;;;;;;50.67;14.27;;;;;;;1.53;75.17;101332.78;4958163;28;20061;-83
2022/01/27 02:37:08;;;;;;;45.53;13.52;;;;;;;1.55;75.31;101341.44;4999851;28;20560;-83
2022/01/27 02:39:36;;;;;;;48.92;14.13;;;;;;;1.54;75.55;101325.78;4980900;28;20053;-83
2022/01/27 02:42:16;;;;;;;45.00;14.73;;;;;;;1.50;74.98;101319.75;5000671;28;20064;-83
2022/01/27 02:44:53;;;;;;;50.83;16.45;;;;;;;1.54;75.05;101317.94;5005081;28;20071;-83
2022/01/27 02:47:21;;;;;;;51.88;14.50;;;;;;;1.52;75.20;101310.97;4998982;28;20050;-82
2022/01/27 02:49:48;;;;;;;51.60;14.57;;;;;;;1.50;75.39;101318.03;5001686;28;20408;-83
2022/01/27 02:52:16;;;;;;;42.42;13.93;;;;;;;1.51;75.66;101326.72;5008217;28;20045;-83
2022/01/27 02:54:43;;;;;;;48.05;15.85;;;;;;;1.51;75.41;101327.56;4999975;28;20050;-83
2022/01/27 02:57:23;;;;;;;43.90;14.02;;;;;;;1.51;75.02;101313.63;5016558;28;20499;-82
2022/01/27 02:59:50;;;;;;;48.50;15.30;;;;;;;1.51;75.33;101311.88;5001007;28;20562;-83
2022/01/27 03:02:18;;;;;;;49.58;13.98;;;;;;;1.48;75.21;101311.97;5000890;28;20050;-82
2022/01/27 03:04:45;;;;;;;50.25;14.48;;;;;;;1.50;75.28;101309.28;4996824;28;20053;-83
2022/01/27 03:07:12;;;;;;;48.42;14.30;;;;;;;1.50;75.26;101317.13;4994904;28;20069;-83
2022/01/27 03:09:38;;;;;;;47.30;15.52;;;;;;;1.50;75.15;101298.81;4992753;28;20053;-83
2022/01/27 03:12:07;;;;;;;41.75;13.50;;;;;;;1.52;75.16;101291.78;4987544;28;20133;-83
2022/01/27 03:14:35;;;;;;;54.28;15.30;;;;;;;1.51;75.43;101295.31;5008016;28;20501;-83
2022/01/27 03:17:04;;;;;;;54.88;14.98;;;;;;;1.51;75.19;101293.56;5002006;28;20378;-83
2022/01/27 03:19:32;;;;;;;39.97;11.95;;;;;;;1.50;74.96;101281.38;5011921;28;20048;-82
2022/01/27 03:22:02;;;;;;;53.47;16.77;;;;;;;1.50;74.89;101281.38;5012624;28;20055;-82
2022/01/27 03:24:29;;;;;;;49.63;13.75;;;;;;;1.48;75.14;101287.56;5010419;28;20052;-83
2022/01/27 03:27:01;;;;;;;49.17;15.40;;;;;;;1.45;75.13;101283.25;4993021;28;20046;-83
2022/01/27 03:29:28;;;;;;;54.95;17.10;;;;;;;1.48;75.15;101272.69;4998778;28;20042;-83
2022/01/27 03:31:55;;;;;;;49.45;14.20;;;;;;;1.48;75.34;101270.09;5007715;28;20038;-83
2022/01/27 03:34:22;;;;;;;47.80;16.65;;;;;;;1.47;75.28;101260.50;5017056;28;20048;-82
2022/01/27 03:36:49;;;;;;;41.97;13.95;;;;;;;1.47;75.25;101257.88;5000988;28;20459;-82
2022/01/27 03:39:19;;;;;;;47.22;14.15;;;;;;;1.46;75.28;101250.09;4984759;28;20136;-83
2022/01/27 03:41:50;;;;;;;43.00;14.10;;;;;;;1.48;75.14;101245.66;4983246;28;20075;-83
2022/01/27 03:44:18;;;;;;;46.63;15.45;;;;;;;1.47;75.16;101238.69;4980383;28;20042;-82
2022/01/27 03:46:45;;;;;;;50.03;13.95;;;;;;;1.47;75.21;101252.63;4982559;28;20485;-82
2022/01/27 03:49:12;;;;;;;50.10;14.77;;;;;;;1.48;75.33;101251.75;5014226;28;20129;-83
2022/01/27 03:51:39;;;;;;;42.17;14.00;;;;;;;1.47;75.32;101251.78;4999743;28;20049;-82
2022/01/27 03:54:05;;;;;;;50.28;14.95;;;;;;;1.46;75.34;101256.16;5000530;28;20504;-83
2022/01/27 03:56:32;;;;;;;44.38;13.70;;;;;;;1.48;75.11;101262.22;4981627;28;20049;-83
2022/01/27 03:58:59;;;;;;;39.10;12.20;;;;;;;1.48;75.28;101243.06;5010795;28;20092;-83
2022/01/27 04:01:25;;;;;;;50.78;13.68;;;;;;;1.46;75.39;101250.94;4996345;28;20481;-83
2022/01/27 04:03:56;;;;;;;53.08;15.10;;;;;;;1.47;75.33;101263.09;5002662;28;20053;-83
2022/01/27 04:06:32;;;;;;;41.58;12.88;;;;;;;1.46;75.07;101261.41;5016852;28;20053;-83
2022/01/27 04:08:59;;;;;;;33.72;9.88;;;;;;;1.46;75.13;101250.94;5015643;28;20051;-83
2022/01/27 04:11:26;;;;;;;51.25;14.73;;;;;;;1.49;75.17;101263.06;5007012;28;20056;-83
2022/01/27 04:14:46;;;;;;;57.53;15.68;;;;;;;1.40;75.10;101256.34;4988915;28;20052;-83
2022/01/27 04:17:17;;;;;;;42.60;13.02;;;;;;;1.44;75.27;101251.88;4955915;28;20045;-83
2022/01/27 04:19:44;;;;;;;47.75;13.57;;;;;;;1.45;75.15;101250.97;5004575;28;20056;-83
2022/01/27 04:22:11;;;;;;;50.20;14.48;;;;;;;1.46;75.19;101250.94;5002361;28;20046;-82
2022/01/27 04:24:37;;;;;;;48.33;15.43;;;;;;;1.44;74.97;101254.50;5014785;28;20042;-83
2022/01/27 04:27:08;;;;;;;56.17;15.75;;;;;;;1.43;74.92;101252.78;5017076;28;20063;-85
2022/01/27 04:29:38;;;;;;;48.58;14.30;;;;;;;1.41;74.96;101254.59;5008157;28;20049;-82
2022/01/27 04:32:12;;;;;;;48.75;14.27;;;;;;;1.41;74.84;101244.97;5036716;28;20045;-82
2022/01/27 04:34:41;;;;;;;50.78;15.20;;;;;;;1.41;75.27;101237.13;5004578;28;20048;-82
2022/01/27 04:37:11;;;;;;;53.45;15.73;;;;;;;1.42;75.27;101232.72;4986796;28;20578;-82
2022/01/27 04:39:55;;;;;;;48.35;15.10;;;;;;;1.43;75.02;101237.94;4995321;28;20052;-83
2022/01/27 04:42:44;;;;;;;52.13;16.38;;;;;;;1.42;75.12;101224.88;4992137;28;20178;-83
2022/01/27 04:45:16;;;;;;;51.35;15.02;;;;;;;1.41;75.12;101231.88;5015222;28;20524;-82
2022/01/27 04:47:48;;;;;;;50.10;15.13;;;;;;;1.40;75.07;101231.91;5003889;28;20045;-82
2022/01/27 04:50:14;;;;;;;52.20;15.15;;;;;;;1.40;74.84;101232.78;5002457;28;20049;-82
2022/01/27 04:52:45;;;;;;;45.80;13.70;;;;;;;1.40;75.05;101230.19;5017337;28;20124;-82
2022/01/27 04:55:14;;;;;;;56.15;17.63;;;;;;;1.40;75.09;101226.69;5003757;28;20441;-83
2022/01/27 04:58:35;;;;;;;48.00;15.88;;;;;;;1.34;74.78;101237.34;5002321;28;20041;-83
2022/01/27 05:01:03;;;;;;;52.00;12.85;;;;;;;1.38;74.94;101242.44;4971403;28;20121;-82
2022/01/27 05:03:38;;;;;;;54.40;15.18;;;;;;;1.40;74.84;101242.38;4999485;28;20551;-82
2022/01/27 05:06:09;;;;;;;53.05;15.45;;;;;;;1.37;75.12;101245.94;5000627;28;20045;-82
2022/01/27 05:08:36;;;;;;;49.58;15.55;;;;;;;1.40;75.14;101238.03;5018982;28;20545;-81
2022/01/27 05:11:49;;;;;;;50.33;15.13;;;;;;;1.41;74.83;101221.41;5015391;28;20042;-82
2022/01/27 05:14:03;;;;;;;54.40;15.57;;;;;;;1.41;75.01;101226.66;5017229;28;20045;-82
2022/01/27 05:16:30;;;;;;;58.88;15.80;;;;;;;1.40;75.06;101230.19;5003572;28;20038;-82
2022/01/27 05:18:57;;;;;;;54.33;15.95;;;;;;;1.34;74.99;101234.72;5016491;28;20155;-82
2022/01/27 05:21:25;;;;;;;51.17;15.68;;;;;;;1.40;74.85;101242.38;4987841;28;20045;-81
2022/01/27 05:23:52;;;;;;;51.88;14.82;;;;;;;1.41;74.82;101241.50;5015157;28;20079;-83
2022/01/27 05:26:19;;;;;;;48.67;15.02;;;;;;;1.40;74.85;101243.28;5014374;28;20099;-84
2022/01/27 05:28:45;;;;;;;60.08;17.17;;;;;;;1.39;74.85;101235.44;4991560;28;20053;-83
2022/01/27 05:31:12;;;;;;;50.00;16.92;;;;;;;1.42;75.01;101232.72;5009086;28;20116;-82
2022/01/27 05:33:39;;;;;;;69.30;17.50;;;;;;;1.40;74.93;101230.19;4998639;28;20045;-82
2022/01/27 05:36:08;;;;;;;54.55;16.85;;;;;;;1.39;74.88;101236.28;5014952;28;20128;-81
2022/01/27 05:39:00;;;;;;;60.28;17.20;;;;;;;1.34;74.51;101229.47;4999997;28;20073;-82
2022/01/27 05:45:54;;;;;;;60.25;15.80;;;;;;;1.35;74.61;101234.69;4984894;28;20665;-81
2022/01/27 05:48:21;;;;;;;62.20;17.40;;;;;;;1.35;74.71;101232.06;4989917;28;20124;-80
2022/01/27 05:50:48;;;;;;;56.35;16.08;;;;;;;1.35;74.63;101234.69;5015321;28;20050;-80
2022/01/27 05:53:14;;;;;;;52.20;15.98;;;;;;;1.37;74.68;101230.25;4988250;28;20052;-80
2022/01/27 05:55:41;;;;;;;59.53;17.17;;;;;;;1.37;74.89;101232.84;4999579;28;20153;-80
2022/01/27 06:01:53;;;;;;;59.33;16.38;;;;;;;1.35;74.83;101233.81;4950790;28;20047;-81
2022/01/27 06:04:20;;;;;;;57.50;17.02;;;;;;;1.36;74.69;101223.31;4950072;28;20054;-81
2022/01/27 06:06:46;;;;;;;65.03;18.23;;;;;;;1.37;74.62;101234.63;4931241;28;20229;-81
2022/01/27 06:09:13;;;;;;;65.00;16.88;;;;;;;1.34;74.57;101226.88;4991980;28;20046;-81
2022/01/27 06:11:40;;;;;;;59.33;18.73;;;;;;;1.37;74.84;101226.78;4974662;28;20043;-81
2022/01/27 06:14:06;;;;;;;54.03;16.15;;;;;;;1.36;74.76;101223.31;4965790;28;20046;-81
2022/01/27 06:16:34;;;;;;;65.68;17.95;;;;;;;1.36;74.90;101228.53;4946598;28;20044;-81
2022/01/27 06:19:02;;;;;;;66.20;18.27;;;;;;;1.38;74.72;101218.03;4953797;28;20043;-80
2022/01/27 06:21:30;;;;;;;59.55;15.73;;;;;;;1.34;74.67;101219.00;4939136;28;20569;-81
2022/01/27 06:23:57;;;;;;;53.75;16.15;;;;;;;1.33;74.73;101227.78;4955702;28;20190;-82
2022/01/27 06:26:24;;;;;;;56.10;17.63;;;;;;;1.34;74.65;101225.09;4963888;28;20050;-81
2022/01/27 06:28:50;;;;;;;59.35;18.30;;;;;;;1.32;74.80;101232.13;4988775;28;20041;-80
2022/01/27 06:31:17;;;;;;;63.13;17.13;;;;;;;1.33;74.79;101226.00;5000839;28;20050;-79
2022/01/27 06:33:44;;;;;;;60.17;17.67;;;;;;;1.34;74.74;101232.94;5013033;28;20542;-79
2022/01/27 06:36:10;;;;;;;63.33;17.45;;;;;;;1.36;74.61;101235.53;5014514;28;20397;-80
2022/01/27 06:38:37;;;;;;;68.32;18.50;;;;;;;1.34;74.58;101238.19;5003307;28;20038;-79
2022/01/27 06:41:04;;;;;;;61.55;19.05;;;;;;;1.35;74.70;101226.84;5012380;28;20049;-80
2022/01/27 06:43:30;;;;;;;69.45;19.33;;;;;;;1.34;74.84;101225.09;5015380;28;20049;-79
2022/01/27 06:45:57;;;;;;;61.20;16.25;;;;;;;1.34;74.54;101219.88;5002232;28;20050;-79
2022/01/27 06:48:24;;;;;;;63.30;17.63;;;;;;;1.35;74.56;101223.34;5001625;28;20125;-79
2022/01/27 06:50:54;;;;;;;71.25;19.60;;;;;;;1.35;74.62;101234.69;5004586;28;20064;-80
2022/01/27 06:53:22;;;;;;;67.45;19.83;;;;;;;1.35;74.53;101236.41;4999446;28;20615;-79
2022/01/27 06:55:49;;;;;;;71.88;20.35;;;;;;;1.35;74.60;101252.13;4990506;28;20045;-79
2022/01/27 06:58:16;;;;;;;66.25;19.40;;;;;;;1.33;74.63;101254.81;4998463;28;20045;-79
2022/01/27 07:00:43;;;;;;;62.10;17.73;;;;;;;1.33;74.65;101257.41;5014245;28;20038;-79
2022/01/27 07:03:10;;;;;;;73.97;19.65;;;;;;;1.33;74.67;101257.41;5017653;28;20069;-79
2022/01/27 07:05:37;;;;;;;60.70;17.90;;;;;;;1.34;74.73;101253.88;5019824;28;20998;-79
2022/01/27 07:08:04;;;;;;;73.65;19.30;;;;;;;1.35;74.46;101239.03;5000810;28;20068;-79
2022/01/27 07:10:35;;;;;;;77.93;19.80;;;;;;;1.34;74.81;101237.34;5011586;28;20054;-79
2022/01/27 07:13:01;;;;;;;78.28;20.90;;;;;;;1.37;74.42;101253.78;5017807;28;20497;-79
2022/01/27 07:15:29;;;;;;;74.72;19.75;;;;;;;1.35;74.33;101249.50;5000378;28;20527;-79
2022/01/27 07:17:55;;;;;;;69.28;18.17;;;;;;;1.33;74.57;101252.19;5011457;28;20045;-79
2022/01/27 07:20:22;;;;;;;68.50;19.80;;;;;;;1.33;74.65;101261.81;5001430;28;20498;-79
2022/01/27 07:22:49;;;;;;;78.75;19.83;;;;;;;1.35;74.29;101258.25;5019303;28;20444;-79
2022/01/27 07:25:15;;;;;;;69.88;19.08;;;;;;;1.32;74.65;101258.28;4995095;28;20136;-80
2022/01/27 07:27:42;;;;;;;72.57;20.75;;;;;;;1.31;74.50;101259.22;5007661;28;20049;-79
2022/01/27 07:30:09;;;;;;;85.00;20.50;;;;;;;1.32;74.70;101254.84;5010294;28;20046;-80
2022/01/27 07:32:37;;;;;;;77.95;18.92;;;;;;;1.32;74.65;101260.91;4989836;28;20083;-79
2022/01/27 07:35:04;;;;;;;69.65;20.50;;;;;;;1.34;74.63;101253.03;4986359;28;20052;-79
2022/01/27 07:37:31;;;;;;;79.72;20.05;;;;;;;1.32;74.39;101245.22;5014644;28;20072;-79
2022/01/27 07:39:58;;;;;;;78.60;21.45;;;;;;;1.33;74.48;101246.94;5000103;28;20038;-79
2022/01/27 07:42:24;;;;;;;79.13;20.50;;;;;;;1.32;74.33;101226.91;5012882;28;20385;-79
2022/01/27 07:44:51;;;;;;;67.38;19.00;;;;;;;1.33;74.61;101233.88;4977426;28;20046;-80
2022/01/27 07:47:18;;;;;;;70.47;18.00;;;;;;;1.32;74.23;101226.91;4997867;28;20052;-79
2022/01/27 07:49:44;;;;;;;71.63;19.52;;;;;;;1.32;74.55;101221.66;5014748;28;20070;-79
2022/01/27 07:52:12;;;;;;;77.38;19.88;;;;;;;1.31;74.44;101222.56;5004809;28;20061;-79
2022/01/27 07:54:39;;;;;;;68.88;18.67;;;;;;;1.31;74.18;101212.09;5002791;28;20053;-79
2022/01/27 07:57:06;;;;;;;65.40;18.60;;;;;;;1.29;74.40;101214.75;5014495;28;20046;-79
2022/01/27 07:59:32;;;;;;;65.07;18.17;;;;;;;1.26;74.46;101220.06;5000008;28;20049;-79
2022/01/27 08:01:59;;;;;;;70.30;17.63;;;;;;;1.28;74.60;101218.28;5002601;28;20528;-80
2022/01/27 08:04:26;;;;;;;74.50;18.23;;;;;;;1.26;74.45;101220.06;5004556;28;20100;-79
2022/01/27 08:06:53;;;;;;;70.18;18.38;;;;;;;1.26;74.60;101214.00;5001810;28;20924;-79
2022/01/27 08:09:20;;;;;;;76.65;19.00;;;;;;;1.25;74.76;101220.16;5006204;28;20128;-79
2022/01/27 08:11:50;;;;;;;77.68;19.38;;;;;;;1.21;74.66;101201.03;5007502;28;20068;-79
2022/01/27 08:14:17;;;;;;;64.30;17.17;;;;;;;1.24;74.49;101207.94;5017116;28;20048;-80
2022/01/27 08:16:44;;;;;;;69.40;19.48;;;;;;;1.22;74.48;101213.22;4979085;28;20048;-80
2022/01/27 08:19:10;;;;;;;61.10;17.38;;;;;;;1.22;74.65;101210.63;4994214;28;20033;-79
2022/01/27 08:21:37;;;;;;;66.15;18.13;;;;;;;1.23;74.89;101204.47;5013133;28;20523;-79
2022/01/27 08:24:04;;;;;;;62.83;16.73;;;;;;;1.25;74.77;101205.28;4987507;28;20049;-79
2022/01/27 08:26:43;;;;;;;70.32;18.20;;;;;;;1.25;74.69;101201.81;5001410;28;20052;-79
2022/01/27 08:29:15;;;;;;;63.38;15.98;;;;;;;1.23;74.78;101201.00;5013487;28;20049;-79
2022/01/27 08:31:54;;;;;;;65.88;17.27;;;;;;;1.24;74.81;101213.16;5002560;28;20037;-79
2022/01/27 08:34:30;;;;;;;62.35;16.05;;;;;;;1.25;74.91;101215.75;5033689;28;20049;-79
2022/01/27 08:36:59;;;;;;;63.70;16.75;;;;;;;1.26;74.91;101203.53;5002363;28;20061;-79
2022/01/27 08:39:26;;;;;;;60.40;17.45;;;;;;;1.24;74.88;101198.31;4980589;28;20055;-80
2022/01/27 08:41:53;;;;;;;61.28;16.88;;;;;;;1.26;74.98;101206.16;5012985;28;20038;-79
2022/01/27 08:44:19;;;;;;;64.95;18.42;;;;;;;1.24;75.17;101198.31;5012769;28;20137;-80
2022/01/27 08:46:46;;;;;;;63.50;18.38;;;;;;;1.25;75.01;101192.22;5018783;28;20475;-80
2022/01/27 08:49:13;;;;;;;74.50;19.38;;;;;;;1.25;75.08;101191.34;5004342;28;20045;-79
2022/01/27 08:51:40;;;;;;;57.38;14.75;;;;;;;1.24;75.20;101185.25;5017002;28;20100;-84
2022/01/27 08:54:07;;;;;;;60.42;16.08;;;;;;;1.26;75.21;101186.06;5016697;28;20119;-83
2022/01/27 08:56:34;;;;;;;59.63;16.63;;;;;;;1.27;75.21;101181.69;5001955;28;20132;-84
2022/01/27 08:59:01;;;;;;;53.97;14.55;;;;;;;1.26;75.35;101180.81;5002837;28;20407;-84
2022/01/27 09:01:28;;;;;;;65.18;16.02;;;;;;;1.28;75.41;101176.41;5016690;28;20128;-84
2022/01/27 09:03:54;;;;;;;53.38;15.18;;;;;;;1.28;75.24;101180.81;5016643;28;20049;-83
2022/01/27 09:06:22;;;;;;;70.70;18.80;;;;;;;1.27;75.26;101186.91;4995110;28;20042;-83
2022/01/27 09:08:50;;;;;;;57.95;16.35;;;;;;;1.38;75.27;101186.63;5000779;28;20128;-82
2022/01/27 09:11:17;;;;;;;51.67;14.30;;;;;;;1.24;74.78;101187.00;4988339;28;20150;-83
2022/01/27 09:13:44;;;;;;;54.30;13.25;;;;;;;1.23;74.82;101194.00;5007123;28;20497;-83
2022/01/27 09:16:11;;;;;;;43.63;12.63;;;;;;;1.23;75.39;101186.16;5003166;28;20038;-82
2022/01/27 09:18:38;;;;;;;49.70;12.98;;;;;;;1.26;75.16;101187.81;4987049;28;20800;-83
2022/01/27 09:21:11;;;;;;;43.33;12.00;;;;;;;1.25;75.28;101188.75;5017261;28;20049;-82
2022/01/27 09:23:38;;;;;;;40.72;12.75;;;;;;;1.25;75.26;101188.75;5001381;28;20056;-83
2022/01/27 09:26:09;;;;;;;40.25;12.50;;;;;;;1.27;75.38;101184.31;5001304;28;20497;-84
2022/01/27 09:28:37;;;;;;;37.88;10.85;;;;;;;1.26;75.16;101185.22;5013902;28;20037;-82
2022/01/27 09:31:04;;;;;;;45.45;12.07;;;;;;;1.26;75.24;101179.97;4983537;28;20124;-82
2022/01/27 09:33:31;;;;;;;47.63;12.32;;;;;;;1.21;74.89;101169.63;5023748;28;20091;-83
2022/01/27 09:35:57;;;;;;;42.22;11.98;;;;;;;1.25;75.24;101183.50;5001637;28;20057;-83
2022/01/27 09:38:24;;;;;;;48.17;14.13;;;;;;;1.22;75.57;101175.72;5014841;28;20046;-82
2022/01/27 09:40:51;;;;;;;52.88;12.80;;;;;;;1.24;75.55;101187.84;5014757;28;20558;-82
2022/01/27 09:43:19;;;;;;;42.38;13.02;;;;;;;1.25;75.57;101189.59;5002113;28;20128;-83
2022/01/27 09:45:47;;;;;;;49.30;14.05;;;;;;;1.25;75.42;101181.75;5006564;28;20497;-83
2022/01/27 09:48:16;;;;;;;38.60;13.40;;;;;;;1.28;75.44;101196.50;5004593;28;20065;-82
2022/01/27 09:53:30;;;;;;;49.72;12.68;;;;;;;1.26;75.30;101193.91;4974953;28;20144;-83
2022/01/27 09:55:57;;;;;;;47.05;12.52;;;;;;;1.27;75.52;101186.91;5000513;28;20136;-82
2022/01/27 09:58:24;;;;;;;36.00;11.48;;;;;;;1.27;75.48;101192.16;5016211;28;20046;-83
2022/01/27 10:00:51;;;;;;;40.67;12.68;;;;;;;1.28;75.58;101192.13;5012784;28;20045;-83
2022/01/27 10:03:18;;;;;;;46.45;12.35;;;;;;;1.28;75.61;101193.88;5019031;28;20053;-82
2022/01/27 10:05:46;;;;;;;35.95;11.80;;;;;;;1.37;75.44;101193.59;4997089;28;20041;-82
2022/01/27 10:08:17;;;;;;;33.17;10.63;;;;;;;1.23;75.20;101185.31;5004089;28;20504;-83
2022/01/27 10:10:47;;;;;;;41.00;12.45;;;;;;;1.21;75.82;101190.56;5014364;28;20046;-83
2022/01/27 10:13:47;;;;;;;32.15;10.88;;;;;;;1.16;75.79;101194.22;5017968;28;20059;-83
2022/01/27 10:16:30;;;;;;;36.03;11.10;;;;;;;1.20;75.65;101178.41;4907202;28;20129;-83
2022/01/27 10:19:08;;;;;;;32.25;11.30;;;;;;;1.21;75.90;101179.25;4968139;28;20125;-84
2022/01/27 10:21:36;;;;;;;37.72;10.77;;;;;;;1.26;75.70;101177.34;5014299;28;20073;-83
2022/01/27 10:24:23;;;;;;;36.53;11.60;;;;;;;1.24;75.76;101177.41;5012988;28;20042;-84
2022/01/27 10:28:09;;;;;;;47.72;12.60;;;;;;;1.22;75.75;101183.56;4986349;28;20045;-83
2022/01/27 10:32:59;;;;;;;44.13;12.15;;;;;;;1.27;75.83;101184.31;4985668;28;20041;-83
2022/01/27 10:35:28;;;;;;;42.00;11.23;;;;;;;1.29;75.86;101185.13;4998426;28;20045;-83
2022/01/27 10:38:09;;;;;;;47.20;13.40;;;;;;;1.25;75.68;101176.50;5011500;28;20041;-83
2022/01/27 10:40:41;;;;;;;43.70;13.23;;;;;;;1.29;75.72;101175.50;5009448;28;20370;-83
2022/01/27 10:43:11;;;;;;;47.67;13.70;;;;;;;1.28;75.66;101179.03;4982208;28;20061;-84
2022/01/27 10:48:51;;;;;;;50.13;14.68;;;;;;;1.25;75.58;101165.19;4936303;28;20097;-83
2022/01/27 10:51:25;;;;;;;56.08;14.57;;;;;;;1.29;75.73;101164.19;4978586;28;20045;-83
2022/01/27 10:54:07;;;;;;;54.55;16.90;;;;;;;1.32;75.32;101158.00;4978109;28;20108;-83
2022/01/27 10:56:39;;;;;;;53.22;14.88;;;;;;;1.23;75.46;101154.75;4960117;28;20493;-83
2022/01/27 10:59:11;;;;;;;56.95;15.65;;;;;;;1.24;75.71;101150.38;4975682;28;20521;-83
2022/01/27 11:01:40;;;;;;;51.10;14.10;;;;;;;1.26;75.78;101153.81;4975461;28;20112;-83
2022/01/27 11:04:08;;;;;;;66.90;18.90;;;;;;;1.29;75.65;101151.09;4958726;28;20054;-83
2022/01/27 11:06:37;;;;;;;53.75;16.35;;;;;;;1.28;75.54;101145.00;4964476;28;20069;-83
2022/01/27 11:09:10;;;;;;;58.15;16.00;;;;;;;1.28;75.97;101150.25;4983578;28;20050;-81
2022/01/27 11:11:40;;;;;;;58.65;18.42;;;;;;;1.28;75.59;101145.00;4978039;28;20553;-83
2022/01/27 11:14:07;;;;;;;66.43;17.77;;;;;;;1.30;75.79;101137.13;4994176;28;20504;-83
2022/01/27 11:16:41;;;;;;;67.82;16.63;;;;;;;1.31;75.76;101133.59;4980571;28;20509;-83
2022/01/27 11:25:19;;;;;;;55.42;16.95;;;;;;;1.31;75.69;101125.75;4921440;28;20171;-83
2022/01/27 11:27:36;;;;;;;57.35;18.17;;;;;;;1.31;75.55;101117.91;4979133;28;20034;-83
2022/01/27 11:30:05;;;;;;;61.25;16.58;;;;;;;1.33;75.78;101110.03;4998021;28;20042;-84
2022/01/27 11:32:36;;;;;;;56.75;16.33;;;;;;;1.32;75.76;101111.75;5014342;28;20129;-83
2022/01/27 11:35:18;;;;;;;63.03;18.38;;;;;;;1.31;75.67;101107.44;4989468;28;20052;-83
2022/01/27 11:37:52;;;;;;;64.93;19.95;;;;;;;1.30;75.73;101114.44;4989151;28;20076;-83
2022/01/27 11:40:33;;;;;;;62.10;19.73;;;;;;;1.32;75.58;101116.13;5009859;28;20089;-83
2022/01/27 11:43:06;;;;;;;73.28;19.77;;;;;;;1.35;75.85;101105.56;5011365;28;20157;-83
2022/01/27 11:45:34;;;;;;;60.08;17.13;;;;;;;1.33;75.74;101099.56;5001131;28;20129;-83
2022/01/27 11:48:11;;;;;;;65.50;19.50;;;;;;;1.33;75.81;101100.41;5017101;28;20632;-83
2022/01/27 11:50:49;;;;;;;68.30;18.77;;;;;;;1.34;75.71;101094.25;4994445;28;20465;-83
2022/01/27 11:53:50;;;;;;;60.30;19.33;;;;;;;1.30;75.95;101079.56;5015040;28;20059;-83
2022/01/27 11:56:23;;;;;;;69.72;18.98;;;;;;;1.31;75.95;101094.34;4979651;28;20042;-83
2022/01/27 11:58:52;;;;;;;70.93;22.17;;;;;;;1.35;75.89;101095.09;4999300;28;20401;-83
2022/01/27 12:01:21;;;;;;;66.70;17.27;;;;;;;1.35;75.95;101095.97;4997512;28;20456;-83
2022/01/27 12:04:07;;;;;;;75.20;20.67;;;;;;;1.32;76.05;101090.81;5015130;28;20046;-85
2022/01/27 12:06:47;;;;;;;69.78;20.50;;;;;;;1.35;75.76;101072.44;4983165;28;20044;-82
2022/01/27 12:09:19;;;;;;;78.05;20.45;;;;;;;1.36;75.85;101078.50;5012774;28;20054;-82
2022/01/27 12:11:50;;;;;;;74.15;22.13;;;;;;;1.39;75.90;101081.03;4999459;28;20103;-83
2022/01/27 12:14:39;;;;;;;67.82;20.63;;;;;;;1.35;75.82;101075.06;5001912;28;20072;-83
2022/01/27 12:17:08;;;;;;;68.65;19.40;;;;;;;1.40;76.22;101081.00;5012821;28;20042;-78
2022/01/27 12:20:08;;;;;;;75.32;22.20;;;;;;;1.35;76.21;101074.16;5014236;28;20063;-78
2022/01/27 12:22:47;;;;;;;80.35;21.20;;;;;;;1.40;76.31;101077.50;4953991;28;20394;-78